Flight Track Log - Related Links

Times and Time Zones

All times are in EDT time to prevent confusion due to time zone crossing. See the GGA1 flight status page for this flight to view local times or setup timezone preferences in your user account.

Time Position Orientation Groundspeed Altitude Reporting Facility
EDT Latitude Longitude Course Direction KTS MPH feet Rate Location/Type
Fri 01:58:28 PM 32.1950 -81.2036 351° North 159 183 2,600  Level Jacksonville Center
Fri 01:59:28 PM 32.2325 -81.2103 351° North 169 194 4,000 1,550 Climbing Jacksonville Center
Fri 02:00:28 PM 32.2911 -81.2189 353° North 178 205 5,700 1,550 Climbing Jacksonville Center
Fri 02:01:28 PM 32.3456 -81.2303 350° North 197 227 7,100 1,600 Climbing Jacksonville Center
Fri 02:02:28 PM 32.3897 -81.2542 335° Northwest 190 219 8,900 1,750 Climbing Jacksonville Center
Fri 02:03:28 PM 32.4278 -81.2878 323° Northwest 174 200 10,600 1,650 Climbing Jacksonville Center
Fri 02:04:28 PM 32.4575 -81.3292 310° West 174 200 12,200 1,650 Climbing Jacksonville Center
Fri 02:05:28 PM 32.4956 -81.3778 313° West 185 213 13,900 900 Climbing Jacksonville Center
Fri 02:06:28 PM 32.5317 -81.4264 311° West 212 244 14,000 50 Climbing Jacksonville Center
Fri 02:07:28 PM 32.5825 -81.4897 314° West 238 274 14,000  Level Jacksonville Center
Fri 02:08:28 PM 32.6250 -81.5458 312° West 244 281 14,000  Level Jacksonville Center
Fri 02:09:28 PM 32.6672 -81.6044 311° West 244 281 14,000  Level Jacksonville Center
Fri 02:10:28 PM 32.7181 -81.6703 313° West 244 281 14,000  Level Jacksonville Center
Fri 02:12:15 PM 32.7986 -81.7778 312° West 247 284 14,000  Level Atlanta Center
Fri 02:13:15 PM 32.8436 -81.8358 313° West 247 284 14,000  Level Atlanta Center
Fri 02:14:15 PM 32.8906 -81.8942 314° West 247 284 14,000  Level Atlanta Center
Fri 02:15:15 PM 32.9333 -81.9550 310° West 247 284 14,000  Level Atlanta Center
Fri 02:16:15 PM 32.9781 -82.0133 312° West 247 284 14,000  Level Atlanta Center
Fri 02:17:15 PM 33.0208 -82.0742 310° West 247 284 14,000  Level Atlanta Center
Fri 02:18:15 PM 33.0656 -82.1328 312° West 247 284 14,000  Level Atlanta Center
Fri 02:19:15 PM 33.1125 -82.1911 314° West 247 284 14,000  Level Atlanta Center
Fri 02:20:15 PM 33.1550 -82.2522 310° West 247 284 14,000  Level Atlanta Center
Fri 02:21:15 PM 33.2019 -82.3108 314° West 242 278 14,000  Level Atlanta Center
Fri 02:22:15 PM 33.2444 -82.3697 311° West 242 278 14,000  Level Atlanta Center
Fri 02:23:15 PM 33.2889 -82.4286 312° West 242 278 14,000  Level Atlanta Center
Fri 02:24:15 PM 33.3317 -82.4947 308° West 247 284 14,000  Level Atlanta Center
Fri 02:25:15 PM 33.3719 -82.5464 313° West 247 284 14,000  Level Atlanta Center
Fri 02:26:15 PM 33.4144 -82.6078 310° West 247 284 14,000  Level Atlanta Center
Fri 02:27:15 PM 33.4589 -82.6644 313° West 242 278 14,000  Level Atlanta Center
Fri 02:28:15 PM 33.5011 -82.7236 311° West 237 273 14,000  Level Atlanta Center
Fri 02:29:15 PM 33.5478 -82.7800 315° West 237 273 14,000  Level Atlanta Center
Fri 02:30:15 PM 33.5900 -82.8417 309° West 237 273 14,000  Level Atlanta Center
Fri 02:31:15 PM 33.6367 -82.9086 310° West 237 273 14,000 -650 Level Atlanta Center
Fri 02:32:15 PM 33.6811 -82.9703 311° West 237 273 12,700 -1,500 Descending Atlanta Center
Fri 02:33:15 PM 33.7358 -83.0322 317° Northwest 257 296 11,000 -1,750 Descending Atlanta Center
Fri 02:34:15 PM 33.7803 -83.0967 310° West 257 296 9,200 -2,160 Descending Atlanta Center
Fri 02:36:10 PM 33.8833 -83.1833 325° Northwest 226 260 4,700 -1,954 Descending Atlanta TRACON
Fri 02:37:10 PM 33.9333 -83.2167 331° Northwest 202 232 3,500 -1,300 Descending Atlanta TRACON
Fri 02:38:10 PM 33.9500 -83.2667 292° West 134 154 2,100 -912 Descending Atlanta TRACON
Fri 02:39:15 PM 33.9589 -83.3050 286° West 136 157 1,600 -462 Descending Atlanta Center
Fri 02:43:00 PM 33.9486 -83.3264 132° Southeast  Level Estimated
Fri 02:50:00 PM 33.9486 -83.3264 132° Southeast  Level Estimated

Login

Don't have an account? Register now (free) for customized features, flight alerts, and more!